Terminal Aerodrome Forecast
Issued by NWS Burlington, VT

Home | Current Version | Previous Version | Text Only | Print | Product List | Glossary On
Versions: 1 2 3 4 5 6 7 8 9 10 11 12 13 14 15 16
466
FTUS41 KBTV 260535
TAFBTV
TAF
KBTV 260535Z 2606/2706 VRB04KT P6SM VCSH OVC070
     FM261500 29005KT P6SM VCSH BKN050
     FM261900 35006KT P6SM VCSH OVC028
     FM270000 VRB03KT P6SM OVC015=

USA.gov is the U.S. government's official web portal to all federal, state and local government web resources and services.